createdAt,value
2023-04-18T00:01:01.739Z,11.45
2023-04-18T00:03:29.861Z,12.85
2023-04-18T00:05:57.920Z,14.57
2023-04-18T00:08:24.301Z,13.23
2023-04-18T00:10:50.569Z,13.80
2023-04-18T00:13:18.472Z,12.65
2023-04-18T00:15:46.336Z,14.02
2023-04-18T00:18:15.880Z,15.82
2023-04-18T00:20:42.165Z,14.45
2023-04-18T00:23:08.448Z,14.20
2023-04-18T00:25:34.843Z,13.15
2023-04-18T00:28:01.225Z,11.73
2023-04-18T00:30:28.209Z,11.10
2023-04-18T00:32:54.540Z,13.35
2023-04-18T00:35:20.941Z,13.25
2023-04-18T00:37:47.246Z,10.20
2023-04-18T00:40:16.054Z,13.10
2023-04-18T00:42:42.441Z,14.77
2023-04-18T00:45:09.033Z,11.63
2023-04-18T00:47:35.385Z,12.10
2023-04-18T00:50:02.203Z,13.25
2023-04-18T00:52:28.678Z,12.52
2023-04-18T00:54:55.477Z,12.60
2023-04-18T00:57:22.107Z,14.55
2023-04-18T00:59:49.877Z,17.38
2023-04-18T01:02:17.207Z,16.63
2023-04-18T01:04:43.909Z,14.85
2023-04-18T01:07:10.311Z,17.80
2023-04-18T01:09:36.855Z,15.52
2023-04-18T01:12:04.165Z,16.65
2023-04-18T01:14:30.791Z,13.63
2023-04-18T01:16:59.838Z,15.18
2023-04-18T01:19:26.215Z,15.75
2023-04-18T01:21:54.004Z,15.65
2023-04-18T01:24:20.368Z,14.57
2023-04-18T01:26:48.109Z,19.23
2023-04-18T01:29:14.831Z,16.23
2023-04-18T01:31:41.370Z,17.85
2023-04-18T01:34:08.180Z,17.88
2023-04-18T01:36:35.146Z,17.27
2023-04-18T01:39:02.094Z,15.40
2023-04-18T01:41:32.263Z,16.45
2023-04-18T01:43:58.872Z,17.45
2023-04-18T01:46:26.052Z,19.65
2023-04-18T01:48:53.581Z,21.67
2023-04-18T01:51:20.819Z,18.00
2023-04-18T01:53:47.330Z,16.05
2023-04-18T01:56:13.840Z,18.00
2023-04-18T01:58:41.664Z,17.75
2023-04-18T02:01:08.498Z,20.60
2023-04-18T02:03:35.287Z,22.73
2023-04-18T02:06:02.785Z,20.10
2023-04-18T02:08:30.718Z,18.33
2023-04-18T02:10:57.084Z,20.70
2023-04-18T02:13:23.424Z,16.65
2023-04-18T02:15:49.828Z,18.98
2023-04-18T02:18:17.390Z,19.45
2023-04-18T02:20:43.849Z,18.73
2023-04-18T02:23:10.419Z,18.50
2023-04-18T02:25:36.799Z,19.23
2023-04-18T02:28:03.357Z,18.75
2023-04-18T02:30:31.273Z,19.92
2023-04-18T02:32:57.719Z,18.25
2023-04-18T02:35:24.490Z,17.95
2023-04-18T02:37:51.366Z,21.35
2023-04-18T02:40:18.094Z,19.17
2023-04-18T02:42:44.552Z,20.63
2023-04-18T02:45:14.257Z,19.60
2023-04-18T02:47:51.735Z,22.40
2023-04-18T02:50:20.515Z,18.98
2023-04-18T02:52:46.816Z,20.50
2023-04-18T02:55:13.440Z,21.67
2023-04-18T02:57:42.437Z,19.65
2023-04-18T03:00:37.558Z,23.33
2023-04-18T03:03:16.738Z,24.15
2023-04-18T03:05:58.730Z,24.00
2023-04-18T03:08:25.424Z,23.30
2023-04-18T03:10:51.809Z,24.80
2023-04-18T03:13:21.774Z,21.33
2023-04-18T03:15:48.235Z,22.98
2023-04-18T03:18:15.132Z,20.95
2023-04-18T03:20:42.768Z,21.00
2023-04-18T03:23:09.145Z,21.77
2023-04-18T03:25:35.545Z,19.33
2023-04-18T03:28:02.912Z,22.77
2023-04-18T03:30:29.288Z,22.80
2023-04-18T03:32:58.504Z,22.05
2023-04-18T03:35:25.224Z,26.00
2023-04-18T03:37:51.550Z,23.92
2023-04-18T03:40:24.635Z,24.50
2023-04-18T03:42:54.080Z,23.13
2023-04-18T03:45:20.456Z,25.45
2023-04-18T03:47:47.270Z,25.45
2023-04-18T03:50:14.535Z,26.05
2023-04-18T03:52:42.560Z,24.98
2023-04-18T03:55:09.010Z,25.52
2023-04-18T03:57:35.473Z,28.25
2023-04-18T04:00:08.063Z,28.33
2023-04-18T04:02:42.124Z,26.80
2023-04-18T04:05:11.095Z,28.27
2023-04-18T04:07:37.855Z,24.90
2023-04-18T04:10:05.674Z,30.95
2023-04-18T04:12:31.978Z,24.27
2023-04-18T04:14:58.647Z,27.33
2023-04-18T04:17:25.034Z,25.08
2023-04-18T04:19:52.438Z,27.27
2023-04-18T04:22:20.159Z,25.00
2023-04-18T04:24:46.788Z,22.52
2023-04-18T04:27:18.554Z,24.13
2023-04-18T04:29:45.327Z,22.30
2023-04-18T04:32:12.937Z,25.30
2023-04-18T04:34:41.403Z,22.40
2023-04-18T04:37:09.950Z,24.27
2023-04-18T04:39:46.004Z,23.50
2023-04-18T04:42:28.515Z,20.90
2023-04-18T04:45:03.501Z,17.98
2023-04-18T04:47:29.876Z,19.65
2023-04-18T04:49:56.389Z,17.50
2023-04-18T04:52:22.728Z,17.95
2023-04-18T04:54:50.643Z,17.58
2023-04-18T04:57:18.833Z,16.42
2023-04-18T04:59:45.574Z,15.30
2023-04-18T05:02:12.157Z,16.65
2023-04-18T05:04:38.726Z,17.42
2023-04-18T05:07:05.190Z,16.25
2023-04-18T05:09:31.480Z,16.13
2023-04-18T05:11:57.834Z,15.85
2023-04-18T05:14:25.159Z,15.15
2023-04-18T05:16:51.874Z,16.05
2023-04-18T05:19:18.240Z,16.58
2023-04-18T05:21:44.569Z,15.52
2023-04-18T05:24:11.095Z,20.52
2023-04-18T05:26:37.652Z,15.05
2023-04-18T05:29:03.947Z,15.13
2023-04-18T05:31:30.276Z,17.65
2023-04-18T05:33:56.732Z,17.02
2023-04-18T05:36:23.043Z,17.83
2023-04-18T05:38:49.448Z,16.83
2023-04-18T05:41:15.852Z,17.13
2023-04-18T05:43:44.503Z,16.88
2023-04-18T05:46:14.705Z,16.80
2023-04-18T05:48:41.168Z,19.65
2023-04-18T05:51:07.806Z,17.98
2023-04-18T05:53:34.917Z,16.58
2023-04-18T05:56:01.656Z,15.57
2023-04-18T05:58:28.807Z,15.10
2023-04-18T06:00:55.184Z,15.77
2023-04-18T06:03:21.668Z,14.52
2023-04-18T06:05:48.209Z,15.07
2023-04-18T06:08:14.543Z,15.15
2023-04-18T06:10:40.898Z,16.23
2023-04-18T06:13:07.328Z,15.13
2023-04-18T06:15:34.512Z,15.50
2023-04-18T06:18:00.860Z,13.70
2023-04-18T06:20:27.239Z,13.50
2023-04-18T06:22:53.548Z,12.85
2023-04-18T06:25:20.189Z,14.50
2023-04-18T06:27:46.589Z,13.63
2023-04-18T06:30:13.783Z,14.52
2023-04-18T06:32:40.364Z,13.77
2023-04-18T06:35:06.863Z,14.77
2023-04-18T06:37:33.221Z,13.32
2023-04-18T06:39:59.620Z,14.32
2023-04-18T06:42:25.984Z,14.05
2023-04-18T06:44:53.954Z,13.30
2023-04-18T06:47:20.355Z,14.13
2023-04-18T06:49:46.676Z,16.50
2023-04-18T06:52:13.007Z,13.68
2023-04-18T06:54:39.357Z,13.95
2023-04-18T06:57:06.024Z,12.45
2023-04-18T06:59:32.292Z,13.70
2023-04-18T07:01:58.620Z,14.57
2023-04-18T07:04:24.986Z,14.63
2023-04-18T07:06:51.545Z,13.43
2023-04-18T07:09:17.813Z,12.52
2023-04-18T07:11:44.315Z,13.98
2023-04-18T07:14:12.110Z,14.10
2023-04-18T07:16:38.576Z,17.35
2023-04-18T07:19:05.564Z,13.15
2023-04-18T07:21:31.919Z,13.70
2023-04-18T07:23:58.365Z,12.70
2023-04-18T07:26:26.574Z,12.93
2023-04-18T07:28:52.897Z,13.70
2023-04-18T07:31:19.520Z,12.32
2023-04-18T07:33:45.918Z,14.25
2023-04-18T07:36:12.202Z,12.75
2023-04-18T07:38:38.578Z,12.65
2023-04-18T07:41:04.898Z,13.73
2023-04-18T07:43:31.381Z,14.45
2023-04-18T07:45:57.940Z,14.20
2023-04-18T07:48:26.982Z,14.88
2023-04-18T07:50:53.566Z,15.15
2023-04-18T07:53:19.935Z,14.80
2023-04-18T07:55:46.521Z,13.18
2023-04-18T07:58:12.993Z,14.20
2023-04-18T08:00:39.694Z,15.40
2023-04-18T08:03:07.650Z,13.57
2023-04-18T08:05:34.339Z,13.52
2023-04-18T08:08:00.761Z,12.77
2023-04-18T08:10:27.125Z,12.60
2023-04-18T08:12:53.418Z,12.95
2023-04-18T08:15:19.778Z,12.45
2023-04-18T08:17:48.935Z,12.30
2023-04-18T08:20:15.546Z,12.40
2023-04-18T08:22:57.403Z,12.90
2023-04-18T08:25:28.675Z,12.73
2023-04-18T08:27:55.633Z,13.93
2023-04-18T08:30:21.973Z,12.13
2023-04-18T08:32:49.380Z,12.98
2023-04-18T08:35:16.058Z,11.68
2023-04-18T08:37:43.172Z,12.68
2023-04-18T08:40:09.525Z,11.52
2023-04-18T08:42:35.879Z,13.10
2023-04-18T08:45:02.559Z,12.63
2023-04-18T08:47:29.867Z,13.32
2023-04-18T08:49:57.194Z,12.25
2023-04-18T08:52:23.707Z,10.25
2023-04-18T08:54:50.868Z,12.75
2023-04-18T08:57:18.225Z,10.77
2023-04-18T08:59:49.616Z,11.13
2023-04-18T09:02:17.794Z,10.48
2023-04-18T09:04:45.323Z,10.13
2023-04-18T09:07:15.809Z,9.82
2023-04-18T09:09:50.060Z,10.27
2023-04-18T09:12:22.260Z,9.40
2023-04-18T09:14:57.613Z,10.90
2023-04-18T09:17:34.126Z,10.98
2023-04-18T09:20:01.261Z,12.07
2023-04-18T09:22:45.837Z,12.02
2023-04-18T09:25:23.635Z,9.80
2023-04-18T09:27:50.217Z,9.38
2023-04-18T09:30:28.951Z,9.18
2023-04-18T09:33:00.186Z,8.45
2023-04-18T09:35:26.865Z,8.20
2023-04-18T09:37:53.278Z,7.90
2023-04-18T09:40:20.008Z,8.70
2023-04-18T09:42:46.784Z,9.20
2023-04-18T09:45:13.130Z,9.13
2023-04-18T09:47:39.761Z,10.07
2023-04-18T09:50:07.338Z,9.77
2023-04-18T09:52:35.309Z,11.10
2023-04-18T09:55:02.925Z,9.90
2023-04-18T09:57:29.858Z,14.05
2023-04-18T09:59:59.707Z,10.13
2023-04-18T10:02:27.405Z,9.20
2023-04-18T10:04:54.216Z,10.10
2023-04-18T10:07:20.890Z,10.00
2023-04-18T10:09:47.864Z,9.30
2023-04-18T10:12:14.486Z,11.60
2023-04-18T10:14:43.053Z,11.68
2023-04-18T10:17:10.105Z,9.25
2023-04-18T10:19:37.783Z,12.70
2023-04-18T10:22:04.136Z,10.52
2023-04-18T10:24:45.930Z,10.73
2023-04-18T10:27:12.364Z,12.00
2023-04-18T10:29:48.918Z,9.10
2023-04-18T10:32:15.825Z,10.02
2023-04-18T10:34:42.175Z,10.57
2023-04-18T10:37:08.583Z,9.75
2023-04-18T10:39:47.921Z,9.00
2023-04-18T10:42:14.452Z,9.32
2023-04-18T10:44:40.896Z,9.18
2023-04-18T10:47:07.189Z,9.15
2023-04-18T10:49:35.853Z,10.85
2023-04-18T10:52:03.150Z,9.30
2023-04-18T10:54:35.860Z,9.70
2023-04-18T10:57:03.322Z,10.70
2023-04-18T10:59:34.132Z,9.57
2023-04-18T11:02:03.737Z,10.18
2023-04-18T11:04:30.409Z,11.55
2023-04-18T11:06:58.232Z,8.75
2023-04-18T11:09:24.821Z,9.35
2023-04-18T11:12:07.573Z,9.38
2023-04-18T11:14:43.932Z,8.32
2023-04-18T11:17:16.046Z,8.48
2023-04-18T11:19:43.228Z,8.90
2023-04-18T11:22:09.679Z,8.90
2023-04-18T11:24:36.479Z,11.57
2023-04-18T11:27:08.293Z,7.85
2023-04-18T11:29:34.655Z,7.38
2023-04-18T11:32:01.093Z,8.23
2023-04-18T11:34:31.424Z,8.38
2023-04-18T11:36:57.790Z,7.90
2023-04-18T11:39:24.162Z,9.27
2023-04-18T11:41:50.648Z,7.57
2023-04-18T11:44:17.807Z,7.55
2023-04-18T11:46:44.914Z,6.10
2023-04-18T11:49:26.641Z,5.90
2023-04-18T11:51:53.549Z,6.40
2023-04-18T11:54:39.276Z,6.30
2023-04-18T11:57:06.183Z,6.60
2023-04-18T11:59:32.659Z,6.25
2023-04-18T12:02:15.284Z,7.25
2023-04-18T12:04:52.972Z,7.00
2023-04-18T12:07:39.208Z,7.15
2023-04-18T12:10:26.599Z,7.50
2023-04-18T12:12:54.531Z,6.55
2023-04-18T12:15:23.963Z,6.50
2023-04-18T12:17:53.405Z,5.60
2023-04-18T12:20:20.022Z,5.70
2023-04-18T12:22:49.386Z,5.70
2023-04-18T12:25:24.960Z,5.63
2023-04-18T12:27:54.467Z,7.45
2023-04-18T12:30:22.414Z,5.68
2023-04-18T12:32:49.868Z,5.63
2023-04-18T12:35:16.842Z,5.85
2023-04-18T12:37:43.257Z,5.40
2023-04-18T12:40:10.810Z,7.57
2023-04-18T12:42:37.120Z,6.55
2023-04-18T12:45:07.490Z,5.55
2023-04-18T12:47:35.280Z,5.38
2023-04-18T12:50:01.900Z,5.70
2023-04-18T12:52:28.511Z,6.05
2023-04-18T12:54:56.500Z,7.85
2023-04-18T12:57:22.836Z,6.22
2023-04-18T12:59:49.241Z,6.38
2023-04-18T13:02:15.668Z,5.60
2023-04-18T13:04:42.329Z,6.60
2023-04-18T13:07:08.745Z,7.85
2023-04-18T13:09:35.157Z,6.75
2023-04-18T13:12:02.214Z,6.22
2023-04-18T13:14:28.700Z,6.20
2023-04-18T13:16:55.143Z,6.70
2023-04-18T13:19:21.477Z,7.57
2023-04-18T13:21:49.578Z,6.85
2023-04-18T13:24:16.033Z,6.70
2023-04-18T13:26:42.313Z,6.78
2023-04-18T13:29:08.567Z,6.32
2023-04-18T13:31:34.903Z,7.28
2023-04-18T13:34:01.152Z,7.15
2023-04-18T13:36:27.883Z,5.90
2023-04-18T13:38:54.817Z,6.07
2023-04-18T13:41:22.381Z,5.72
2023-04-18T13:43:48.624Z,6.50
2023-04-18T13:46:14.927Z,6.20
2023-04-18T13:48:41.181Z,7.13
2023-04-18T13:51:07.504Z,6.00
2023-04-18T13:53:34.033Z,6.70
2023-04-18T13:56:01.704Z,6.47
2023-04-18T13:58:28.311Z,6.95
2023-04-18T14:00:54.581Z,6.88
2023-04-18T14:03:21.054Z,6.47
2023-04-18T14:05:47.545Z,6.82
2023-04-18T14:08:14.216Z,7.35
2023-04-18T14:10:40.599Z,7.38
2023-04-18T14:13:06.945Z,8.43
2023-04-18T14:15:33.414Z,8.75
2023-04-18T14:18:01.009Z,8.65
2023-04-18T14:20:34.051Z,8.52
2023-04-18T14:23:03.451Z,8.65
2023-04-18T14:25:30.095Z,8.85
2023-04-18T14:28:15.585Z,7.93
2023-04-18T14:30:41.929Z,9.25
2023-04-18T14:33:09.394Z,9.40
2023-04-18T14:35:36.021Z,8.85
2023-04-18T14:38:02.584Z,11.50
2023-04-18T14:40:30.794Z,10.10
2023-04-18T14:42:58.385Z,11.60
2023-04-18T14:45:24.740Z,12.32
2023-04-18T14:47:51.183Z,10.60
2023-04-18T14:50:17.605Z,9.85
2023-04-18T14:52:44.128Z,9.98
2023-04-18T14:55:10.660Z,10.68
2023-04-18T14:57:37.327Z,11.88
2023-04-18T15:00:08.741Z,11.20
2023-04-18T15:02:35.403Z,11.85
2023-04-18T15:05:02.087Z,11.43
2023-04-18T15:07:28.643Z,11.35
2023-04-18T15:09:55.017Z,11.32
2023-04-18T15:12:21.343Z,12.65
2023-04-18T15:14:47.665Z,12.25
2023-04-18T15:17:15.273Z,11.88
2023-04-18T15:19:41.564Z,13.00
2023-04-18T15:22:08.836Z,12.82
2023-04-18T15:24:35.138Z,10.85
2023-04-18T15:27:01.867Z,11.23
2023-04-18T15:29:28.896Z,11.68
2023-04-18T15:31:55.284Z,11.90
2023-04-18T15:34:21.597Z,10.93
2023-04-18T15:36:49.063Z,10.20
2023-04-18T15:39:17.940Z,11.60
2023-04-18T15:41:44.348Z,11.15
2023-04-18T15:44:10.754Z,10.25
2023-04-18T15:46:37.281Z,10.48
2023-04-18T15:49:03.727Z,10.88
2023-04-18T15:51:30.836Z,11.05
2023-04-18T15:53:57.177Z,10.98
2023-04-18T15:56:26.033Z,11.38
2023-04-18T15:58:52.834Z,11.05
2023-04-18T16:01:19.220Z,10.32
2023-04-18T16:03:45.599Z,11.02
2023-04-18T16:06:13.682Z,10.13
2023-04-18T16:08:40.017Z,10.20
2023-04-18T16:11:06.765Z,11.88
2023-04-18T16:13:38.130Z,11.05
2023-04-18T16:16:05.410Z,10.45
2023-04-18T16:18:31.990Z,10.60
2023-04-18T16:20:58.354Z,10.55
2023-04-18T16:23:25.340Z,10.95
2023-04-18T16:25:54.772Z,10.35
2023-04-18T16:28:21.691Z,11.52
2023-04-18T16:30:48.422Z,10.07
2023-04-18T16:33:15.541Z,9.80
2023-04-18T16:35:41.909Z,9.82
2023-04-18T16:38:08.354Z,10.10
2023-04-18T16:40:34.844Z,9.45
2023-04-18T16:43:02.113Z,9.10
2023-04-18T16:45:28.450Z,10.45
2023-04-18T16:47:54.795Z,8.85
2023-04-18T16:50:21.400Z,9.48
2023-04-18T16:52:47.729Z,10.13
2023-04-18T16:55:14.087Z,8.70
2023-04-18T16:57:40.365Z,8.98
2023-04-18T17:00:07.357Z,8.95
2023-04-18T17:02:33.869Z,7.78
2023-04-18T17:05:00.404Z,9.40
2023-04-18T17:07:26.825Z,8.38
2023-04-18T17:09:53.162Z,9.13
2023-04-18T17:12:19.553Z,12.00
2023-04-18T17:14:45.947Z,7.82
2023-04-18T17:17:12.260Z,12.27
2023-04-18T17:19:41.971Z,10.00
2023-04-18T17:22:08.248Z,9.63
2023-04-18T17:24:34.507Z,8.55
2023-04-18T17:27:01.140Z,8.40
2023-04-18T17:29:27.501Z,11.07
2023-04-18T17:31:53.909Z,9.57
2023-04-18T17:34:20.334Z,8.68
2023-04-18T17:36:46.745Z,10.35
2023-04-18T17:39:13.222Z,8.77
2023-04-18T17:41:40.169Z,11.13
2023-04-18T17:44:08.559Z,9.48
2023-04-18T17:46:35.086Z,11.02
2023-04-18T17:49:01.539Z,9.38
2023-04-18T17:51:27.824Z,8.85
2023-04-18T17:53:54.927Z,12.93
2023-04-18T17:56:22.121Z,8.88
2023-04-18T17:58:48.848Z,8.63
2023-04-18T18:01:16.014Z,9.40
2023-04-18T18:03:43.408Z,9.57
2023-04-18T18:06:14.129Z,9.38
2023-04-18T18:08:42.435Z,8.80
2023-04-18T18:11:09.737Z,10.20
2023-04-18T18:13:36.415Z,9.13
2023-04-18T18:16:02.723Z,10.48
2023-04-18T18:18:29.899Z,13.52
2023-04-18T18:20:57.931Z,9.60
2023-04-18T18:23:24.492Z,10.40
2023-04-18T18:25:50.813Z,10.13
2023-04-18T18:28:17.301Z,10.40
2023-04-18T18:30:43.566Z,9.45
2023-04-18T18:33:09.958Z,11.68
2023-04-18T18:35:36.535Z,12.35
2023-04-18T18:38:02.856Z,11.38
2023-04-18T18:40:29.136Z,11.93
2023-04-18T18:42:56.670Z,10.32
2023-04-18T18:45:23.099Z,11.05
2023-04-18T18:47:49.472Z,12.65
2023-04-18T18:50:16.286Z,10.50
2023-04-18T18:52:45.605Z,13.32
2023-04-18T18:55:12.001Z,13.52
2023-04-18T18:57:38.277Z,11.95
2023-04-18T19:00:05.726Z,13.13
2023-04-18T19:02:32.243Z,13.13
2023-04-18T19:04:58.889Z,12.80
2023-04-18T19:07:25.516Z,12.30
2023-04-18T19:09:53.571Z,14.35
2023-04-18T19:12:19.907Z,13.27
2023-04-18T19:14:46.764Z,12.10
2023-04-18T19:17:13.041Z,13.23
2023-04-18T19:19:39.498Z,12.63
2023-04-18T19:22:06.552Z,12.48
2023-04-18T19:24:32.938Z,14.45
2023-04-18T19:26:59.753Z,12.75
2023-04-18T19:29:26.194Z,12.15
2023-04-18T19:31:52.631Z,13.68
2023-04-18T19:34:19.043Z,13.07
2023-04-18T19:36:45.349Z,15.07
2023-04-18T19:39:11.678Z,15.40
2023-04-18T19:41:38.078Z,12.18
2023-04-18T19:44:04.522Z,11.93
2023-04-18T19:46:31.019Z,16.08
2023-04-18T19:48:57.421Z,14.45
2023-04-18T19:51:23.795Z,14.35
2023-04-18T19:53:50.088Z,12.18
2023-04-18T19:56:16.568Z,14.65
2023-04-18T19:58:46.515Z,14.82
2023-04-18T20:01:16.282Z,15.02
2023-04-18T20:03:42.883Z,16.60
2023-04-18T20:06:09.624Z,13.75
2023-04-18T20:08:36.782Z,16.85
2023-04-18T20:11:10.441Z,14.30
2023-04-18T20:13:37.325Z,14.40
2023-04-18T20:16:04.368Z,13.18
2023-04-18T20:18:31.958Z,12.57
2023-04-18T20:20:58.444Z,12.52
2023-04-18T20:23:24.753Z,16.40
2023-04-18T20:25:51.130Z,13.45
2023-04-18T20:28:17.882Z,13.35
2023-04-18T20:30:45.674Z,14.05
2023-04-18T20:33:12.034Z,14.88
2023-04-18T20:35:38.762Z,12.70
2023-04-18T20:38:07.149Z,12.50
2023-04-18T20:40:34.239Z,11.38
2023-04-18T20:43:02.944Z,12.05
2023-04-18T20:45:30.022Z,12.13
2023-04-18T20:47:56.610Z,12.65
2023-04-18T20:50:23.062Z,12.38
2023-04-18T20:52:49.685Z,13.27
2023-04-18T20:55:18.226Z,11.15
2023-04-18T20:57:44.566Z,11.27
2023-04-18T21:00:11.799Z,10.65
2023-04-18T21:02:38.319Z,10.73
2023-04-18T21:05:04.872Z,11.65
2023-04-18T21:07:32.085Z,12.52
2023-04-18T21:09:58.406Z,12.10
2023-04-18T21:12:24.682Z,11.18
2023-04-18T21:14:51.312Z,11.50
2023-04-18T21:17:17.748Z,10.95
2023-04-18T21:19:47.106Z,11.88
2023-04-18T21:22:14.015Z,12.93
2023-04-18T21:24:40.433Z,10.48
2023-04-18T21:27:07.275Z,14.15
2023-04-18T21:29:34.216Z,10.77
2023-04-18T21:32:00.798Z,11.05
2023-04-18T21:34:27.128Z,9.63
2023-04-18T21:36:53.370Z,10.32
2023-04-18T21:39:19.640Z,9.80
2023-04-18T21:41:45.998Z,9.57
2023-04-18T21:44:12.736Z,10.55
2023-04-18T21:46:39.157Z,9.05
2023-04-18T21:49:05.468Z,9.98
2023-04-18T21:51:32.029Z,10.48
2023-04-18T21:53:59.503Z,9.93
2023-04-18T21:56:26.088Z,9.30
2023-04-18T21:58:52.397Z,9.18
2023-04-18T22:01:18.776Z,10.95
2023-04-18T22:03:45.399Z,8.52
2023-04-18T22:06:11.823Z,9.30
2023-04-18T22:08:38.946Z,8.77
2023-04-18T22:11:05.667Z,8.95
2023-04-18T22:13:35.525Z,8.35
2023-04-18T22:16:02.978Z,9.68
2023-04-18T22:18:33.505Z,9.27
2023-04-18T22:21:01.141Z,7.70
2023-04-18T22:23:27.655Z,8.00
2023-04-18T22:25:54.036Z,8.90
2023-04-18T22:28:20.527Z,9.90
2023-04-18T22:30:46.905Z,8.20
2023-04-18T22:33:13.255Z,8.13
2023-04-18T22:35:39.592Z,7.65
2023-04-18T22:38:06.207Z,7.95
2023-04-18T22:40:32.528Z,8.18
2023-04-18T22:42:58.811Z,8.50
2023-04-18T22:45:25.170Z,7.05
2023-04-18T22:47:51.583Z,8.10
2023-04-18T22:50:18.029Z,8.88
2023-04-18T22:52:44.364Z,6.95
2023-04-18T22:55:10.809Z,7.93
2023-04-18T22:57:38.012Z,7.85
2023-04-18T23:00:06.286Z,8.95
2023-04-18T23:02:32.824Z,7.70
2023-04-18T23:04:59.630Z,7.88
2023-04-18T23:07:25.972Z,7.90
2023-04-18T23:09:52.307Z,7.35
2023-04-18T23:12:18.698Z,8.35
2023-04-18T23:14:45.037Z,6.43
2023-04-18T23:17:11.320Z,6.82
2023-04-18T23:19:38.307Z,6.68
2023-04-18T23:22:04.606Z,7.43
2023-04-18T23:24:31.095Z,6.38
2023-04-18T23:26:58.077Z,6.22
2023-04-18T23:29:24.390Z,7.43
2023-04-18T23:31:51.421Z,6.40
2023-04-18T23:34:17.911Z,6.20
2023-04-18T23:36:44.209Z,8.20
2023-04-18T23:39:10.513Z,7.80
2023-04-18T23:41:36.755Z,7.63
2023-04-18T23:44:03.148Z,6.70
2023-04-18T23:46:29.507Z,6.20
2023-04-18T23:48:56.009Z,8.05
2023-04-18T23:51:22.303Z,6.97
2023-04-18T23:53:48.604Z,9.65
2023-04-18T23:56:14.973Z,6.97
2023-04-18T23:58:41.267Z,9.07
